Time;durP1;ratioP1;P1;durP2;ratioP2;P2;SDS_P1;SDS_P2;PMS_P1;PMS_P2;Temp;Humidity;BMP_temperature;BMP_pressure;BME280_temperature;BME280_humidity;BME280_pressure;Samples;Min_cycle;Max_cycle;Signal;HPM_P1;HPM_P2
2021/10/05 00:00:40;;;;;;;32.53;23.87;;;;;;;10.17;76.69;100320.04;2153550;81;21021;-76
2021/10/05 00:03:41;;;;;;;32.05;22.20;;;;;;;10.12;76.55;100324.98;2152311;81;21002;-75
2021/10/05 00:06:43;;;;;;;39.65;25.68;;;;;;;10.06;76.82;100320.64;2148179;81;21517;-76
2021/10/05 00:09:44;;;;;;;41.63;26.70;;;;;;;10.04;76.83;100313.34;2144572;81;20985;-77
2021/10/05 00:12:46;;;;;;;40.50;28.98;;;;;;;9.99;76.71;100310.83;2152487;81;21543;-76
2021/10/05 00:15:49;;;;;;;50.65;30.60;;;;;;;9.95;76.67;100309.48;2153071;81;20998;-76
2021/10/05 00:18:50;;;;;;;50.35;27.48;;;;;;;9.92;76.82;100312.46;2149659;81;21073;-76
2021/10/05 00:21:52;;;;;;;49.90;26.93;;;;;;;9.88;77.10;100299.52;2151619;81;21503;-78
2021/10/05 00:24:53;;;;;;;71.53;25.52;;;;;;;9.92;77.29;100291.25;2152822;81;20971;-75
2021/10/05 00:27:55;;;;;;;38.25;24.37;;;;;;;9.92;77.58;100303.19;2148123;81;20969;-75
2021/10/05 00:30:57;;;;;;;40.58;26.27;;;;;;;9.93;77.62;100296.38;2149124;81;20998;-77
2021/10/05 00:33:58;;;;;;;39.55;24.80;;;;;;;9.89;77.31;100291.08;2152544;81;21053;-76
2021/10/05 00:37:00;;;;;;;32.00;23.27;;;;;;;9.87;77.13;100290.39;2150596;81;21106;-76
2021/10/05 00:40:02;;;;;;;31.07;21.02;;;;;;;9.85;77.54;100283.94;2152899;81;20976;-77
2021/10/05 00:43:04;;;;;;;303.12;27.00;;;;;;;9.82;76.86;100278.92;2133039;82;21572;-77
2021/10/05 00:46:05;;;;;;;103.65;23.05;;;;;;;9.74;77.77;100272.76;2144742;82;20983;-76
2021/10/05 00:49:06;;;;;;;43.23;24.63;;;;;;;9.67;78.21;100275.72;2149102;81;21002;-76
2021/10/05 00:52:11;;;;;;;30.40;23.22;;;;;;;9.65;78.09;100266.59;2148225;81;21484;-77
2021/10/05 00:55:13;;;;;;;38.13;23.75;;;;;;;9.59;77.47;100265.89;2148389;81;21520;-77
2021/10/05 00:58:15;;;;;;;37.08;24.12;;;;;;;9.56;77.76;100255.11;2156735;82;20982;-77
2021/10/05 01:01:17;;;;;;;31.90;22.77;;;;;;;9.61;78.20;100259.45;2146622;81;21029;-76
2021/10/05 01:04:18;;;;;;;31.85;21.90;;;;;;;9.60;77.76;100252.50;2147127;81;21003;-76
2021/10/05 01:07:20;;;;;;;34.80;22.40;;;;;;;9.58;77.74;100248.34;2145524;82;21550;-76
2021/10/05 01:10:21;;;;;;;38.60;25.85;;;;;;;9.52;78.28;100234.41;2144469;82;21899;-76
2021/10/05 01:13:23;;;;;;;33.92;24.72;;;;;;;9.46;78.43;100228.39;2144199;81;20979;-77
2021/10/05 01:16:24;;;;;;;94.85;25.10;;;;;;;9.47;78.64;100220.80;2148864;81;21018;-77
2021/10/05 01:19:26;;;;;;;55.23;25.95;;;;;;;9.41;78.69;100210.34;2142089;81;21019;-76
2021/10/05 01:22:28;;;;;;;41.92;29.55;;;;;;;9.36;78.69;100201.53;2153872;81;21035;-76
2021/10/05 01:25:31;;;;;;;40.30;27.42;;;;;;;9.33;78.79;100199.20;2143995;81;21565;-76
2021/10/05 01:28:32;;;;;;;38.73;24.90;;;;;;;9.36;78.98;100201.53;2148477;82;21034;-76
2021/10/05 01:31:39;;;;;;;37.80;25.27;;;;;;;9.39;78.64;100197.74;2141963;82;21042;-77
2021/10/05 01:34:40;;;;;;;36.33;25.30;;;;;;;9.40;78.43;100193.63;2149849;82;21470;-74
2021/10/05 01:37:41;;;;;;;41.65;25.50;;;;;;;9.39;78.23;100192.45;2147761;81;21390;-77
2021/10/05 01:40:43;;;;;;;52.10;31.17;;;;;;;9.36;78.00;100187.47;2151714;81;21014;-76
2021/10/05 01:43:45;;;;;;;177.05;36.77;;;;;;;9.38;78.87;100181.53;2144133;81;21729;-75
2021/10/05 01:46:49;;;;;;;57.40;34.35;;;;;;;9.42;79.51;100178.39;2147046;82;21470;-75
2021/10/05 01:49:51;;;;;;;53.20;36.70;;;;;;;9.47;79.75;100179.75;2148899;82;21524;-76
2021/10/05 01:52:53;;;;;;;43.73;28.70;;;;;;;9.54;80.31;100168.84;2146821;82;21296;-77
2021/10/05 01:55:54;;;;;;;46.65;28.20;;;;;;;9.53;79.26;100176.47;2150018;81;21098;-75
2021/10/05 01:58:56;;;;;;;51.48;31.48;;;;;;;9.51;79.04;100178.43;2150076;82;21012;-76
2021/10/05 02:01:58;;;;;;;41.80;28.45;;;;;;;9.50;79.00;100182.08;2146791;82;21026;-75
2021/10/05 02:04:59;;;;;;;49.73;30.65;;;;;;;9.50;79.07;100184.73;2145199;81;21081;-76
2021/10/05 02:08:01;;;;;;;50.60;32.60;;;;;;;9.48;79.16;100181.40;2155742;81;21006;-77
2021/10/05 02:11:02;;;;;;;44.53;29.40;;;;;;;9.45;79.13;100171.12;2158765;81;21032;-75
2021/10/05 02:14:06;;;;;;;50.78;31.75;;;;;;;9.43;78.89;100170.80;2153777;81;21664;-75
2021/10/05 02:17:07;;;;;;;47.55;33.10;;;;;;;9.47;79.63;100170.48;2154388;81;20982;-76
2021/10/05 02:20:10;;;;;;;50.78;34.55;;;;;;;9.53;80.30;100173.31;2151816;81;21495;-75
2021/10/05 02:23:11;;;;;;;62.35;39.42;;;;;;;9.57;80.39;100169.84;2152115;81;21635;-75
2021/10/05 02:26:12;;;;;;;61.35;40.48;;;;;;;9.62;81.12;100170.20;2152982;81;21025;-76
2021/10/05 02:29:14;;;;;;;63.17;40.70;;;;;;;9.75;81.55;100170.59;2152095;81;21520;-75
2021/10/05 02:32:16;;;;;;;68.00;42.75;;;;;;;9.82;81.85;100172.92;2147770;82;21050;-76
2021/10/05 02:35:17;;;;;;;63.05;42.08;;;;;;;9.94;82.25;100162.02;2154949;81;21007;-77
2021/10/05 02:38:19;;;;;;;67.10;43.23;;;;;;;10.01;82.17;100160.41;2157672;81;20977;-76
2021/10/05 02:41:21;;;;;;;62.38;40.35;;;;;;;10.08;82.68;100161.42;2149953;81;21030;-76
2021/10/05 02:44:22;;;;;;;67.32;42.62;;;;;;;10.20;82.94;100161.94;2153019;82;21053;-77
2021/10/05 02:47:24;;;;;;;65.37;42.20;;;;;;;10.28;83.15;100156.19;2150811;82;21066;-76
2021/10/05 02:50:26;;;;;;;57.55;37.25;;;;;;;10.35;83.28;100157.67;2153203;81;21005;-76
2021/10/05 02:53:27;;;;;;;71.07;44.90;;;;;;;10.43;83.62;100154.20;2154987;81;20964;-75
2021/10/05 02:56:29;;;;;;;65.83;43.60;;;;;;;10.50;83.58;100161.81;2151590;81;21066;-76
2021/10/05 02:59:30;;;;;;;65.32;43.68;;;;;;;10.54;84.05;100145.42;2152996;82;21503;-76
2021/10/05 03:02:32;;;;;;;68.67;42.13;;;;;;;10.58;84.31;100133.14;2156158;81;20975;-76
2021/10/05 03:05:33;;;;;;;67.30;45.58;;;;;;;10.61;84.16;100137.61;2153640;81;21077;-76
2021/10/05 03:08:36;;;;;;;62.10;42.55;;;;;;;10.64;84.22;100129.31;2152196;81;21045;-76
2021/10/05 03:11:37;;;;;;;65.83;43.42;;;;;;;10.67;84.20;100130.34;2154597;81;21023;-78
2021/10/05 03:14:39;;;;;;;62.67;44.13;;;;;;;10.70;84.32;100119.86;2152805;82;20992;-77
2021/10/05 03:17:40;;;;;;;63.23;41.73;;;;;;;10.72;84.49;100118.70;2158526;81;21009;-75
2021/10/05 03:20:43;;;;;;;58.58;43.05;;;;;;;10.75;84.26;100120.19;2151414;81;21009;-76
2021/10/05 03:23:44;;;;;;;71.07;45.30;;;;;;;10.75;84.13;100119.69;2157660;81;21017;-78
2021/10/05 03:26:46;;;;;;;72.27;46.55;;;;;;;10.74;84.23;100123.85;2153671;81;21025;-78
2021/10/05 03:29:48;;;;;;;68.15;44.88;;;;;;;10.75;84.28;100116.20;2153480;81;20997;-76
2021/10/05 03:32:49;;;;;;;59.58;41.50;;;;;;;10.75;84.27;100115.70;2157963;81;21121;-76
2021/10/05 03:35:50;;;;;;;65.85;42.45;;;;;;;10.73;84.20;100111.09;2150054;81;21018;-76
2021/10/05 03:38:52;;;;;;;63.00;40.70;;;;;;;10.73;84.18;100104.95;2155299;81;20978;-77
2021/10/05 03:41:53;;;;;;;63.00;40.33;;;;;;;10.71;84.33;100097.15;2155333;81;21004;-77
2021/10/05 03:44:55;;;;;;;58.92;40.03;;;;;;;10.67;84.48;100086.55;2158353;81;21027;-77
2021/10/05 03:47:56;;;;;;;59.77;42.83;;;;;;;10.65;84.38;100098.33;2156055;82;20994;-77
2021/10/05 03:50:58;;;;;;;60.75;42.62;;;;;;;10.65;84.55;100106.28;2151654;82;21003;-75
2021/10/05 03:53:59;;;;;;;67.50;43.58;;;;;;;10.63;84.63;100097.66;2156676;81;21000;-76
2021/10/05 03:57:02;;;;;;;58.68;40.15;;;;;;;10.65;84.73;100103.12;2150688;81;21000;-75
2021/10/05 04:00:06;;;;;;;66.95;41.85;;;;;;;10.64;84.60;100096.14;2148680;81;20993;-76
2021/10/05 04:03:07;;;;;;;59.13;41.55;;;;;;;10.65;84.61;100099.16;2154188;81;21077;-76
2021/10/05 04:06:10;;;;;;;64.42;42.48;;;;;;;10.66;84.73;100092.02;2152960;81;21516;-75
2021/10/05 04:09:11;;;;;;;63.85;40.30;;;;;;;10.63;84.87;100083.06;2155547;81;21026;-75
2021/10/05 04:12:13;;;;;;;62.95;41.55;;;;;;;10.62;85.13;100081.42;2152257;81;21006;-76
2021/10/05 04:15:14;;;;;;;63.05;41.50;;;;;;;10.60;85.00;100074.11;2149317;81;21013;-76
2021/10/05 04:18:16;;;;;;;63.63;39.33;;;;;;;10.59;85.11;100067.98;2155111;81;20979;-74
2021/10/05 04:21:19;;;;;;;66.50;43.73;;;;;;;10.59;85.53;100069.31;2156311;81;20967;-75
2021/10/05 04:24:20;;;;;;;60.30;40.28;;;;;;;10.60;85.56;100062.17;2156462;81;21009;-76
2021/10/05 04:27:22;;;;;;;65.28;43.08;;;;;;;10.60;85.74;100053.71;2152927;82;21604;-74
2021/10/05 04:30:24;;;;;;;61.15;40.70;;;;;;;10.60;85.65;100044.42;2153986;81;20990;-76
2021/10/05 04:33:25;;;;;;;59.63;41.55;;;;;;;10.60;85.50;100036.47;2153253;81;21039;-75
2021/10/05 04:36:27;;;;;;;64.75;41.88;;;;;;;10.56;85.68;100027.20;2150433;81;20965;-77
2021/10/05 04:39:28;;;;;;;61.65;41.08;;;;;;;10.53;85.66;100020.41;2153372;81;21034;-76
2021/10/05 04:42:30;;;;;;;62.10;40.30;;;;;;;10.50;85.63;100011.94;2157570;81;21012;-76
2021/10/05 04:45:31;;;;;;;64.05;42.70;;;;;;;10.50;85.63;100013.26;2155174;81;21012;-76
2021/10/05 04:48:32;;;;;;;69.82;43.35;;;;;;;10.50;85.72;100013.26;2150443;81;20995;-76
2021/10/05 04:51:34;;;;;;;62.08;43.23;;;;;;;10.51;85.75;100017.59;2150855;81;21022;-78
2021/10/05 04:54:35;;;;;;;60.38;41.98;;;;;;;10.53;85.78;100016.90;2153083;81;21055;-76
2021/10/05 04:57:37;;;;;;;69.22;43.92;;;;;;;10.55;86.02;100007.78;2152345;81;21031;-73
2021/10/05 05:00:39;;;;;;;65.62;40.83;;;;;;;10.59;86.09;100009.61;2153470;81;21496;-76
2021/10/05 05:03:40;;;;;;;62.88;39.88;;;;;;;10.62;85.84;100013.25;2154015;81;21025;-76
2021/10/05 05:06:42;;;;;;;58.08;41.25;;;;;;;10.66;85.95;100013.23;2144351;82;21071;-75
2021/10/05 05:09:44;;;;;;;62.85;40.08;;;;;;;10.69;85.86;100011.56;2142372;82;21007;-74
2021/10/05 05:12:45;;;;;;;55.95;38.42;;;;;;;10.72;85.99;100013.87;2139849;82;21522;-73
2021/10/05 05:15:47;;;;;;;59.45;41.73;;;;;;;10.75;85.83;100004.75;2143337;82;21042;-74
2021/10/05 05:18:48;;;;;;;57.20;38.65;;;;;;;10.77;85.81;100002.25;2137654;82;21033;-74
2021/10/05 05:21:50;;;;;;;64.07;42.35;;;;;;;10.83;85.91;99991.45;2134854;82;20994;-76
2021/10/05 05:24:51;;;;;;;54.13;39.88;;;;;;;10.93;85.78;99980.65;2142695;82;21474;-75
2021/10/05 05:27:53;;;;;;;56.58;38.50;;;;;;;11.04;85.92;99976.28;2141311;82;21033;-75
2021/10/05 05:30:54;;;;;;;53.63;38.05;;;;;;;11.16;85.89;99964.77;2139561;82;20962;-77
2021/10/05 05:33:56;;;;;;;53.92;36.90;;;;;;;11.30;85.63;99958.70;2137150;82;21000;-75
2021/10/05 05:36:57;;;;;;;54.00;38.38;;;;;;;11.48;85.50;99957.59;2140644;82;20987;-73
2021/10/05 05:39:59;;;;;;;56.68;36.17;;;;;;;11.92;84.85;99955.14;2139558;82;20998;-72
2021/10/05 05:43:00;;;;;;;48.23;34.67;;;;;;;11.92;84.85;99955.14;2138815;82;21078;-74
2021/10/05 05:46:02;;;;;;;43.25;32.08;;;;;;;12.13;84.58;99948.30;2137918;82;20999;-72
2021/10/05 05:49:03;;;;;;;43.95;30.52;;;;;;;12.34;84.30;99941.78;2146246;81;20987;-75
2021/10/05 05:52:05;;;;;;;43.08;30.20;;;;;;;12.58;84.05;99936.67;2141645;82;21018;-75
2021/10/05 05:55:08;;;;;;;43.42;29.87;;;;;;;12.82;83.78;99935.56;2143573;82;21496;-76
2021/10/05 05:58:17;;;;;;;44.40;30.02;;;;;;;13.08;83.38;99938.23;2136559;82;21017;-73
2021/10/05 06:01:21;;;;;;;38.55;29.20;;;;;;;13.31;83.07;99931.44;2141045;82;21034;-73
2021/10/05 06:04:22;;;;;;;39.10;28.73;;;;;;;13.67;82.84;99934.05;2138579;82;21019;-73
2021/10/05 06:07:24;;;;;;;35.10;26.97;;;;;;;13.93;82.19;99927.29;2148645;81;21034;-73
2021/10/05 06:10:25;;;;;;;39.18;27.42;;;;;;;14.23;81.78;99923.93;2153787;81;21039;-74
2021/10/05 06:13:27;;;;;;;36.28;25.27;;;;;;;14.49;81.34;99928.08;2149664;81;21532;-71
2021/10/05 06:16:28;;;;;;;33.65;25.72;;;;;;;14.74;80.42;99933.80;2146125;81;20996;-72
2021/10/05 06:19:30;;;;;;;32.63;24.82;;;;;;;15.02;80.73;99922.20;2153104;81;20994;-71
2021/10/05 06:22:33;;;;;;;35.58;23.22;;;;;;;15.36;80.25;99920.44;2151194;81;21022;-73
2021/10/05 06:25:40;;;;;;;30.43;22.73;;;;;;;15.70;79.73;99923.49;2153165;81;20981;-73
2021/10/05 06:28:38;;;;;;;30.17;23.42;;;;;;;15.96;78.80;99915.16;2149995;82;21481;-72
2021/10/05 06:31:39;;;;;;;28.42;21.10;;;;;;;16.07;78.50;99910.00;2129817;81;21469;-71
2021/10/05 06:34:41;;;;;;;31.97;21.37;;;;;;;16.33;77.92;99904.29;2147648;81;20989;-71
2021/10/05 06:37:42;;;;;;;26.20;19.70;;;;;;;16.54;77.46;99909.39;2147685;81;21027;-72
2021/10/05 06:40:44;;;;;;;31.10;20.50;;;;;;;16.86;77.07;99901.47;2152793;81;21543;-72
2021/10/05 06:43:46;;;;;;;26.52;19.10;;;;;;;17.10;76.13;99901.78;2150878;81;21065;-73
2021/10/05 06:46:47;;;;;;;23.85;18.25;;;;;;;17.16;75.94;99893.70;2153604;81;21055;-71
2021/10/05 06:49:49;;;;;;;25.70;18.82;;;;;;;17.36;74.84;99883.37;2150796;81;21038;-72
2021/10/05 06:52:50;;;;;;;27.13;17.57;;;;;;;17.60;74.53;99882.58;2153303;81;21041;-71
2021/10/05 06:55:51;;;;;;;23.92;15.78;;;;;;;17.95;74.58;99880.76;2151603;81;21085;-71
2021/10/05 06:58:53;;;;;;;21.65;15.45;;;;;;;18.10;72.52;99870.51;2158922;81;21586;-73
2021/10/05 07:01:54;;;;;;;22.95;15.68;;;;;;;18.19;72.02;99867.51;2157258;81;21041;-72
2021/10/05 07:04:56;;;;;;;21.55;15.63;;;;;;;18.24;72.26;99868.48;2149826;81;21564;-73
2021/10/05 07:07:57;;;;;;;20.82;13.88;;;;;;;18.33;71.16;99866.34;2148517;82;21697;-72
2021/10/05 07:10:59;;;;;;;19.48;15.13;;;;;;;18.46;70.71;99857.30;2150639;81;21029;-71
2021/10/05 07:14:01;;;;;;;19.95;14.78;;;;;;;18.59;70.14;99849.91;2156536;81;21056;-74
2021/10/05 07:17:03;;;;;;;21.68;14.60;;;;;;;18.88;70.87;99848.02;2153535;81;20994;-71
2021/10/05 07:20:06;;;;;;;17.73;13.88;;;;;;;18.99;67.99;99852.62;2150708;81;21019;-72
2021/10/05 07:23:08;;;;;;;19.12;13.32;;;;;;;18.95;67.04;99842.02;2146076;81;21005;-73
2021/10/05 07:26:10;;;;;;;20.43;13.68;;;;;;;19.03;66.87;99830.94;2150815;81;21510;-72
2021/10/05 07:29:14;;;;;;;17.00;12.68;;;;;;;19.17;66.86;99818.94;2153423;81;21036;-72
2021/10/05 07:32:15;;;;;;;22.82;13.38;;;;;;;19.38;66.37;99823.50;2154718;81;21499;-72
2021/10/05 07:35:18;;;;;;;14.68;12.23;;;;;;;19.42;66.09;99827.35;2153985;81;21041;-73
2021/10/05 07:38:20;;;;;;;19.52;13.30;;;;;;;19.60;64.43;99826.45;2150560;81;20976;-72
2021/10/05 07:41:21;;;;;;;17.98;13.15;;;;;;;19.66;62.92;99822.33;2151473;81;21060;-71
2021/10/05 07:44:23;;;;;;;20.48;12.35;;;;;;;19.66;63.24;99822.86;2151446;81;20987;-71
2021/10/05 07:47:25;;;;;;;17.60;12.93;;;;;;;19.79;62.94;99819.09;2153165;81;20977;-74
2021/10/05 07:50:26;;;;;;;20.60;12.75;;;;;;;19.82;61.84;99823.52;2152817;81;21022;-75
2021/10/05 07:53:28;;;;;;;18.07;12.58;;;;;;;19.91;62.43;99810.52;2153455;81;20988;-74
2021/10/05 07:56:30;;;;;;;17.70;13.20;;;;;;;20.05;62.84;99812.43;2158087;81;21002;-75
2021/10/05 07:59:31;;;;;;;20.50;12.65;;;;;;;20.09;62.18;99810.36;2153301;81;21001;-74
2021/10/05 08:02:33;;;;;;;19.57;13.93;;;;;;;20.20;62.52;99811.93;2154923;81;21069;-78
2021/10/05 08:05:34;;;;;;;17.07;12.40;;;;;;;20.34;61.60;99808.73;2150010;81;21021;-77
2021/10/05 08:08:36;;;;;;;19.67;12.15;;;;;;;20.40;60.99;99798.06;2145176;82;21014;-77
2021/10/05 08:11:37;;;;;;;14.83;11.83;;;;;;;20.51;61.12;99793.16;2137134;82;20957;-76
2021/10/05 08:14:39;;;;;;;16.15;11.75;;;;;;;20.66;60.64;99777.83;2141449;82;21040;-76
2021/10/05 08:17:41;;;;;;;17.70;12.15;;;;;;;20.81;60.60;99772.73;2143912;82;21018;-74
2021/10/05 08:20:44;;;;;;;16.82;10.68;;;;;;;20.84;60.38;99766.86;2140651;82;20994;-75
2021/10/05 08:23:47;;;;;;;15.60;11.43;;;;;;;20.89;59.89;99754.82;2140904;82;21010;-78
2021/10/05 08:26:49;;;;;;;17.82;11.65;;;;;;;21.00;59.55;99748.51;2141598;82;21004;-76
2021/10/05 08:29:52;;;;;;;18.17;11.30;;;;;;;21.16;59.47;99747.42;2139196;82;21026;-76
2021/10/05 08:32:55;;;;;;;17.48;10.58;;;;;;;21.31;59.26;99738.21;2137723;82;21022;-76
2021/10/05 08:35:56;;;;;;;16.77;11.22;;;;;;;21.48;58.04;99728.78;2138144;82;21000;-74
2021/10/05 08:38:58;;;;;;;18.87;11.10;;;;;;;21.66;58.62;99733.91;2144069;82;21011;-79
2021/10/05 08:42:01;;;;;;;13.28;10.40;;;;;;;21.67;57.55;99726.08;2143560;82;20969;-74
2021/10/05 08:45:05;;;;;;;17.17;10.45;;;;;;;21.81;56.89;99726.54;2139901;82;21063;-76
2021/10/05 08:48:08;;;;;;;20.57;9.83;;;;;;;21.89;56.94;99723.95;2137464;82;21007;-77
2021/10/05 08:51:09;;;;;;;20.27;10.18;;;;;;;22.02;55.76;99718.69;2140480;82;20975;-74
2021/10/05 08:54:11;;;;;;;14.18;10.08;;;;;;;22.18;56.27;99709.73;2142830;82;21038;-76
2021/10/05 08:57:14;;;;;;;13.95;10.05;;;;;;;22.11;55.48;99696.39;2146853;82;21022;-76
2021/10/05 09:00:16;;;;;;;10.98;9.28;;;;;;;22.33;54.95;99695.59;2126883;82;21716;-75
2021/10/05 09:03:23;;;;;;;13.83;9.65;;;;;;;22.45;55.14;99692.73;2143602;82;21475;-79
2021/10/05 09:06:25;;;;;;;16.73;9.65;;;;;;;22.65;54.33;99686.70;2142411;82;21053;-77
2021/10/05 09:09:26;;;;;;;16.10;8.93;;;;;;;22.79;53.94;99675.19;2102391;83;21010;-77
2021/10/05 09:12:31;;;;;;;10.82;9.70;;;;;;;22.91;53.30;99669.60;2131366;82;21089;-75
2021/10/05 09:15:33;;;;;;;15.93;9.90;;;;;;;22.90;53.98;99667.98;2130045;82;20993;-76
2021/10/05 09:18:36;;;;;;;17.95;10.00;;;;;;;22.93;51.97;99661.24;2132546;83;21068;-75
2021/10/05 09:21:45;;;;;;;15.72;8.93;;;;;;;23.04;52.22;99661.62;2132900;82;21539;-75
2021/10/05 09:24:50;;;;;;;15.43;9.23;;;;;;;23.00;51.53;99657.80;2131282;83;21049;-75
2021/10/05 09:27:52;;;;;;;15.20;8.45;;;;;;;22.97;50.17;99652.36;2129644;82;21570;-77
2021/10/05 09:31:06;;;;;;;12.80;8.73;;;;;;;23.03;50.36;99658.63;2128248;82;20977;-77
2021/10/05 09:34:07;;;;;;;13.28;8.85;;;;;;;23.01;50.10;99663.50;2130509;83;21096;-77
2021/10/05 09:37:20;;;;;;;12.40;8.48;;;;;;;22.94;49.03;99652.04;2132105;83;20977;-77
2021/10/05 09:40:22;;;;;;;11.63;8.05;;;;;;;22.94;49.86;99649.34;2132379;83;21163;-76
2021/10/05 09:43:24;;;;;;;17.42;7.95;;;;;;;23.00;49.25;99653.73;2130890;82;21084;-78
2021/10/05 09:46:25;;;;;;;16.15;8.35;;;;;;;23.13;49.08;99657.89;2128583;83;21054;-75
2021/10/05 09:49:26;;;;;;;10.55;7.65;;;;;;;23.21;49.74;99660.11;2130727;82;20977;-78
2021/10/05 09:52:46;;;;;;;15.85;7.87;;;;;;;23.26;48.79;99661.50;2132730;82;20991;-76
2021/10/05 09:55:47;;;;;;;20.27;8.25;;;;;;;23.44;49.24;99654.83;2132456;83;21037;-75
2021/10/05 09:58:50;;;;;;;12.23;7.60;;;;;;;23.54;48.43;99653.54;2130512;82;21021;-76
2021/10/05 10:01:52;;;;;;;11.35;7.72;;;;;;;23.55;47.72;99661.92;2102828;82;21008;-75
2021/10/05 10:04:55;;;;;;;11.63;8.13;;;;;;;23.56;48.03;99660.03;2127683;83;21013;-77
2021/10/05 10:07:58;;;;;;;12.23;7.37;;;;;;;23.69;47.29;99648.72;2148719;81;21100;-75
2021/10/05 10:10:59;;;;;;;13.85;8.58;;;;;;;23.72;47.26;99650.93;2151525;81;21029;-77
2021/10/05 10:14:01;;;;;;;12.70;8.30;;;;;;;23.79;47.58;99639.84;2153042;81;21057;-76
2021/10/05 10:17:04;;;;;;;8.83;7.62;;;;;;;23.79;47.05;99648.77;2152415;81;21060;-76
2021/10/05 10:20:11;;;;;;;11.20;8.55;;;;;;;23.76;46.68;99641.73;2155704;81;21008;-75
2021/10/05 10:23:21;;;;;;;11.33;7.70;;;;;;;23.75;46.43;99628.73;2154903;81;21004;-78
2021/10/05 10:26:22;;;;;;;17.73;7.90;;;;;;;23.80;47.24;99627.94;2154766;81;21028;-76
2021/10/05 10:29:29;;;;;;;10.23;7.58;;;;;;;23.91;47.38;99622.83;2153576;81;21772;-74
2021/10/05 10:32:36;;;;;;;10.95;7.83;;;;;;;24.04;46.70;99632.33;2152376;81;21052;-77
2021/10/05 10:35:54;;;;;;;13.53;8.08;;;;;;;24.05;45.93;99623.14;2153566;81;21064;-76
2021/10/05 10:39:23;;;;;;;8.88;6.70;;;;;;;24.08;46.77;99635.61;2155432;81;21028;-75
2021/10/05 10:42:30;;;;;;;14.00;8.65;;;;;;;24.11;45.60;99614.74;2152430;81;20962;-77
2021/10/05 10:45:36;;;;;;;11.45;7.45;;;;;;;24.28;45.36;99612.33;2152700;81;20967;-76
2021/10/05 10:48:38;;;;;;;20.00;8.03;;;;;;;24.25;45.19;99621.81;2150732;81;20994;-76
2021/10/05 10:51:43;;;;;;;12.13;6.95;;;;;;;24.31;45.33;99607.18;2158361;81;21032;-77
2021/10/05 10:54:54;;;;;;;11.88;7.87;;;;;;;24.36;45.33;99604.48;2154535;81;21072;-76
2021/10/05 10:57:57;;;;;;;13.88;7.60;;;;;;;24.35;44.44;99593.89;2154437;81;21040;-77
2021/10/05 11:00:59;;;;;;;9.03;6.60;;;;;;;24.34;44.62;99595.79;2150964;81;20984;-78
2021/10/05 11:04:07;;;;;;;12.50;7.40;;;;;;;24.33;44.47;99594.72;2154602;81;21063;-77
2021/10/05 11:07:10;;;;;;;10.93;7.42;;;;;;;24.30;44.18;99592.52;2146717;81;21078;-77
2021/10/05 11:10:12;;;;;;;10.20;7.08;;;;;;;24.36;44.30;99588.76;2132676;81;21098;-77
2021/10/05 11:13:13;;;;;;;10.28;6.83;;;;;;;24.53;44.69;99592.04;2131226;81;21016;-75
2021/10/05 11:16:14;;;;;;;17.77;7.28;;;;;;;24.64;43.96;99586.08;2132776;82;21035;-78
2021/10/05 11:19:17;;;;;;;9.80;7.33;;;;;;;24.72;43.81;99577.39;2130280;81;21041;-77
2021/10/05 11:22:20;;;;;;;14.07;7.75;;;;;;;24.75;43.26;99578.72;2132307;82;21022;-75
2021/10/05 11:25:21;;;;;;;24.70;8.00;;;;;;;24.85;42.73;99565.69;2130898;81;20979;-77
2021/10/05 11:28:27;;;;;;;14.93;7.45;;;;;;;24.76;42.02;99561.38;2133054;81;21618;-75
2021/10/05 11:31:42;;;;;;;16.55;7.83;;;;;;;24.75;43.03;99575.48;2131574;82;21609;-75
2021/10/05 11:34:47;;;;;;;11.38;6.47;;;;;;;24.85;43.48;99558.36;2130076;82;21020;-77
2021/10/05 11:37:48;;;;;;;15.25;6.62;;;;;;;25.05;43.04;99558.86;2137344;81;21007;-77
2021/10/05 11:40:57;;;;;;;17.98;7.25;;;;;;;25.11;41.77;99547.44;2136226;81;20986;-76
2021/10/05 11:43:59;;;;;;;13.90;6.90;;;;;;;25.07;41.60;99548.54;2132322;81;22160;-76
2021/10/05 11:47:04;;;;;;;9.73;6.85;;;;;;;25.07;41.74;99545.83;2137884;82;20947;-77
2021/10/05 11:50:10;;;;;;;10.40;6.95;;;;;;;25.10;42.07;99542.56;2132932;82;21577;-77
2021/10/05 11:53:11;;;;;;;11.33;6.60;;;;;;;25.13;42.28;99528.98;2134000;81;21003;-76
2021/10/05 11:56:17;;;;;;;11.75;6.37;;;;;;;25.16;41.48;99527.09;2138887;81;20975;-77
2021/10/05 11:59:29;;;;;;;13.72;6.50;;;;;;;25.24;41.24;99541.45;2128780;82;21002;-76
2021/10/05 12:02:32;;;;;;;13.60;7.10;;;;;;;25.23;41.04;99523.55;2135236;82;21065;-76
2021/10/05 12:05:33;;;;;;;10.50;6.47;;;;;;;25.29;40.20;99518.91;2130766;82;21005;-77
2021/10/05 12:08:46;;;;;;;10.48;5.90;;;;;;;25.33;39.47;99523.48;2145158;82;21002;-77
2021/10/05 12:11:48;;;;;;;12.45;6.33;;;;;;;25.34;38.26;99508.84;2158728;81;21001;-76
2021/10/05 12:15:02;;;;;;;15.58;6.28;;;;;;;25.40;36.99;99514.52;2155967;81;21043;-77
2021/10/05 12:18:07;;;;;;;12.07;5.60;;;;;;;25.41;37.26;99513.41;2154250;81;20950;-78
2021/10/05 12:21:12;;;;;;;18.07;5.80;;;;;;;25.38;35.84;99503.11;2154317;81;21044;-77
2021/10/05 12:24:14;;;;;;;17.48;5.70;;;;;;;25.41;35.88;99499.83;2154855;81;21100;-78
2021/10/05 12:27:35;;;;;;;13.10;6.15;;;;;;;25.40;35.83;99501.48;2152747;81;21056;-76
2021/10/05 12:30:37;;;;;;;15.50;6.80;;;;;;;25.37;35.83;99502.85;2152116;81;21057;-77
2021/10/05 12:33:38;;;;;;;14.45;6.53;;;;;;;25.44;36.70;99511.48;2153284;81;20939;-77
2021/10/05 12:36:39;;;;;;;11.45;5.95;;;;;;;25.50;36.62;99504.93;2151951;81;20978;-75
2021/10/05 12:39:41;;;;;;;11.33;6.10;;;;;;;25.48;36.41;99507.14;2153374;81;21550;-75
2021/10/05 12:42:46;;;;;;;11.43;6.22;;;;;;;25.48;35.68;99501.70;2153600;81;21021;-76
2021/10/05 12:45:57;;;;;;;14.35;6.10;;;;;;;25.42;35.71;99506.88;2154747;81;21024;-78
2021/10/05 12:49:05;;;;;;;9.45;6.25;;;;;;;25.38;35.61;99485.45;2150594;81;21076;-76
2021/10/05 12:52:07;;;;;;;17.65;5.58;;;;;;;25.32;35.07;99497.99;2152634;81;21005;-76
2021/10/05 12:55:08;;;;;;;13.15;5.75;;;;;;;25.26;35.15;99493.13;2154024;81;20981;-76
2021/10/05 12:58:12;;;;;;;10.63;6.03;;;;;;;25.28;36.37;99495.00;2155047;81;20997;-77
2021/10/05 13:01:15;;;;;;;12.37;6.60;;;;;;;25.28;35.68;99488.21;2153888;81;21020;-76
2021/10/05 13:04:16;;;;;;;11.88;5.70;;;;;;;25.24;34.95;99489.33;2154576;81;21001;-77
2021/10/05 13:07:18;;;;;;;10.58;5.17;;;;;;;25.20;35.22;99480.65;2152767;81;21060;-77
2021/10/05 13:10:23;;;;;;;9.55;5.72;;;;;;;25.16;34.89;99470.09;2147503;81;21013;-76
2021/10/05 13:13:24;;;;;;;10.88;5.45;;;;;;;25.13;35.35;99473.34;2150437;81;20992;-78
2021/10/05 13:16:26;;;;;;;15.18;6.75;;;;;;;25.09;34.80;99467.66;2147731;81;21500;-77
2021/10/05 13:19:27;;;;;;;10.13;5.22;;;;;;;25.08;35.77;99473.36;2153186;81;21000;-77
2021/10/05 13:22:29;;;;;;;18.60;5.53;;;;;;;25.06;35.24;99470.94;2147866;81;21117;-77
2021/10/05 13:25:31;;;;;;;11.40;5.55;;;;;;;25.05;36.06;99470.09;2146455;82;21429;-77
2021/10/05 13:28:32;;;;;;;12.10;5.90;;;;;;;25.05;36.29;99475.52;2148294;81;21510;-77
2021/10/05 13:31:34;;;;;;;10.30;5.25;;;;;;;25.03;36.47;99465.52;2144075;81;21589;-76
2021/10/05 13:34:36;;;;;;;7.33;5.03;;;;;;;25.05;36.62;99466.58;2148623;81;20990;-77
2021/10/05 13:37:40;;;;;;;13.28;6.22;;;;;;;25.07;36.90;99471.19;2151960;81;21071;-77
2021/10/05 13:40:44;;;;;;;9.00;5.67;;;;;;;25.07;37.44;99482.59;2147705;81;21473;-77
2021/10/05 13:43:46;;;;;;;11.55;5.15;;;;;;;25.06;37.17;99484.51;2147424;81;20987;-76
2021/10/05 13:46:49;;;;;;;12.55;5.30;;;;;;;25.02;36.70;99476.63;2152175;82;21014;-77
2021/10/05 13:49:50;;;;;;;12.43;5.25;;;;;;;24.94;36.14;99479.38;2152220;81;21569;-76
2021/10/05 13:52:51;;;;;;;9.28;4.90;;;;;;;24.88;36.57;99479.67;2151435;81;20965;-77
2021/10/05 13:55:53;;;;;;;9.73;5.42;;;;;;;24.83;36.31;99488.63;2146205;81;21036;-77
2021/10/05 13:58:57;;;;;;;9.48;5.33;;;;;;;24.76;36.77;99489.48;2152120;81;20979;-77
2021/10/05 14:01:59;;;;;;;9.00;5.05;;;;;;;24.73;37.06;99496.27;2154067;81;21480;-80